Map

Track Data

SID SEASON NUMBER BASIN SUBBASIN NAME ISO_TIME NATURE LAT LON WMO_WIND WMO_PRES WMO_AGENCY TRACK_TYPE DIST2LAND LANDFALL IFLAG USA_AGENCY USA_ATCF_ID USA_LAT USA_LON USA_RECORD USA_STATUS USA_WIND USA_PRES USA_SSHS USA_R34_NE USA_R34_SE USA_R34_SW USA_R34_NW USA_R50_NE USA_R50_SE USA_R50_SW USA_R50_NW USA_R64_NE USA_R64_SE USA_R64_SW USA_R64_NW USA_POCI USA_ROCI USA_RMW USA_EYE TOKYO_LAT TOKYO_LON TOKYO_GRADE TOKYO_WIND TOKYO_PRES TOKYO_R50_DIR TOKYO_R50_LONG TOKYO_R50_SHORT TOKYO_R30_DIR TOKYO_R30_LONG TOKYO_R30_SHORT TOKYO_LAND CMA_LAT CMA_LON CMA_CAT CMA_WIND CMA_PRES HKO_LAT HKO_LON HKO_CAT HKO_WIND HKO_PRES NEWDELHI_LAT NEWDELHI_LON NEWDELHI_GRADE NEWDELHI_WIND NEWDELHI_PRES NEWDELHI_CI NEWDELHI_DP NEWDELHI_POCI REUNION_LAT REUNION_LON REUNION_TYPE REUNION_WIND REUNION_PRES REUNION_TNUM REUNION_CI REUNION_RMW REUNION_R34_NE REUNION_R34_SE REUNION_R34_SW REUNION_R34_NW REUNION_R50_NE REUNION_R50_SE REUNION_R50_SW REUNION_R50_NW REUNION_R64_NE REUNION_R64_SE REUNION_R64_SW REUNION_R64_NW BOM_LAT BOM_LON BOM_TYPE BOM_WIND BOM_PRES BOM_TNUM BOM_CI BOM_RMW BOM_R34_NE BOM_R34_SE BOM_R34_SW BOM_R34_NW BOM_R50_NE BOM_R50_SE BOM_R50_SW BOM_R50_NW BOM_R64_NE BOM_R64_SE BOM_R64_SW BOM_R64_NW BOM_ROCI BOM_POCI BOM_EYE BOM_POS_METHOD BOM_PRES_METHOD NADI_LAT NADI_LON NADI_CAT NADI_WIND NADI_PRES WELLINGTON_LAT WELLINGTON_LON WELLINGTON_WIND WELLINGTON_PRES DS824_LAT DS824_LON DS824_STAGE DS824_WIND DS824_PRES TD9636_LAT TD9636_LON TD9636_STAGE TD9636_WIND TD9636_PRES TD9635_LAT TD9635_LON TD9635_WIND TD9635_PRES TD9635_ROCI NEUMANN_LAT NEUMANN_LON NEUMANN_CLASS NEUMANN_WIND NEUMANN_PRES MLC_LAT MLC_LON MLC_CLASS MLC_WIND MLC_PRES USA_GUST BOM_GUST BOM_GUST_PER REUNION_GUST REUNION_GUST_PER USA_SEAHGT USA_SEARAD_NE USA_SEARAD_SE USA_SEARAD_SW USA_SEARAD_NW STORM_SPEED STORM_DIR
1927274N23291 1927 54 NA NA NOT_NAMED 1927-09-30 12:00:00 TS 23.0000 -69.0000 30 hurdat_atl main 394 390 O_____________ hurdat_atl AL051927 23.0000 -69.0000 TD 30 -1 14 294
1927274N23291 1927 54 NA NA NOT_NAMED 1927-09-30 15:00:00 TS 23.2880 -69.6946 main 402 378 P_____________ AL051927 23.2880 -69.6946 TD 30 -1 14 295
1927274N23291 1927 54 NA NA NOT_NAMED 1927-09-30 18:00:00 TS 23.6000 -70.4000 30 hurdat_atl main 378 359 O_____________ hurdat_atl AL051927 23.6000 -70.4000 TD 30 -1 15 297
1927274N23291 1927 54 NA NA NOT_NAMED 1927-09-30 21:00:00 TS 23.9499 -71.1150 main 359 358 P_____________ AL051927 23.9499 -71.1150 TD 30 -1 15 299
1927274N23291 1927 54 NA NA NOT_NAMED 1927-10-01 00:00:00 TS 24.3000 -71.8000 30 hurdat_atl main 367 364 O_____________ hurdat_atl AL051927 24.3000 -71.8000 TD 30 -1 14 299
1927274N23291 1927 54 NA NA NOT_NAMED 1927-10-01 03:00:00 TS 24.6072 -72.4304 main 384 383 P_____________ AL051927 24.6072 -72.4304 TD 30 -1 12 299
1927274N23291 1927 54 NA NA NOT_NAMED 1927-10-01 06:00:00 TS 24.9000 -73.0000 30 hurdat_atl main 413 413 O_____________ hurdat_atl AL051927 24.9000 -73.0000 TD 30 -1 12 301
1927274N23291 1927 54 NA NA NOT_NAMED 1927-10-01 09:00:00 TS 25.1997 -73.5228 main 430 388 P_____________ AL051927 25.1997 -73.5228 TD 30 -1 11 304
1927274N23291 1927 54 NA NA NOT_NAMED 1927-10-01 12:00:00 TS 25.5000 -74.0000 30 hurdat_atl main 388 358 O_____________ hurdat_atl AL051927 25.5000 -74.0000 TD 30 -1 10 305
1927274N23291 1927 54 NA NA NOT_NAMED 1927-10-01 15:00:00 TS 25.7999 -74.4652 main 353 329 P_____________ AL051927 25.7999 -74.4652 TD 30 -1 10 307
1927274N23291 1927 54 NA NA NOT_NAMED 1927-10-01 18:00:00 TS 26.1000 -74.9000 30 hurdat_atl main 329 306 O_____________ hurdat_atl AL051927 26.1000 -74.9000 TD 30 -1 10 308
1927274N23291 1927 54 NA NA NOT_NAMED 1927-10-01 21:00:00 TS 26.3999 -75.3152 main 306 291 P_____________ AL051927 26.3999 -75.3152 TD 32 -1 9 310
1927274N23291 1927 54 NA NA NOT_NAMED 1927-10-02 00:00:00 TS 26.7000 -75.7000 35 hurdat_atl main 291 282 O_____________ hurdat_atl AL051927 26.7000 -75.7000 TS 35 0 9 311
1927274N23291 1927 54 NA NA NOT_NAMED 1927-10-02 03:00:00 TS 26.9924 -76.0652 main 284 284 P_____________ AL051927 26.9924 -76.0652 TS 37 0 9 314
1927274N23291 1927 54 NA NA NOT_NAMED 1927-10-02 06:00:00 TS 27.3000 -76.4000 40 hurdat_atl main 292 292 O_____________ hurdat_atl AL051927 27.3000 -76.4000 TS 40 0 8 318
1927274N23291 1927 54 NA NA NOT_NAMED 1927-10-02 09:00:00 TS 27.6198 -76.6931 main 307 307 P_____________ AL051927 27.6198 -76.6931 TS 42 0 9 323
1927274N23291 1927 54 NA NA NOT_NAMED 1927-10-02 12:00:00 TS 28.0000 -77.0000 45 hurdat_atl main 324 310 O_____________ hurdat_atl AL051927 28.0000 -77.0000 TS 45 0 10 325
1927274N23291 1927 54 NA NA NOT_NAMED 1927-10-02 15:00:00 TS 28.4548 -77.3632 main 302 268 P_____________ AL051927 28.4548 -77.3632 TS 47 0 12 325
1927274N23291 1927 54 NA NA NOT_NAMED 1927-10-02 18:00:00 TS 29.0000 -77.8000 50 hurdat_atl main 268 241 O_____________ hurdat_atl AL051927 29.0000 -77.8000 TS 50 0 14 324
1927274N23291 1927 54 NA NA NOT_NAMED 1927-10-02 21:00:00 TS 29.6126 -78.3278 main 246 231 P_____________ AL051927 29.6126 -78.3278 TS 50 0 16 324
1927274N23291 1927 54 NA NA NOT_NAMED 1927-10-03 00:00:00 TS 30.3000 -78.9000 50 hurdat_atl main 234 173 O_____________ hurdat_atl AL051927 30.3000 -78.9000 TS 50 0 18 325
1927274N23291 1927 54 NA NA NOT_NAMED 1927-10-03 03:00:00 TS 31.0466 -79.4805 main 166 79 P_____________ AL051927 31.0466 -79.4805 TS 50 0 18 328
1927274N23291 1927 54 NA NA NOT_NAMED 1927-10-03 06:00:00 TS 31.8000 -80.0000 50 hurdat_atl main 79 0 O_____________ hurdat_atl AL051927 31.8000 -80.0000 TS 50 0 17 332
1927274N23291 1927 54 NA NA NOT_NAMED 1927-10-03 09:00:00 TS 32.5000 -80.4000 50 hurdat_atl main 0 0 O_____________ hurdat_atl AL051927 32.5000 -80.4000 L TS 50 0 17 340
1927274N23291 1927 54 NA NA NOT_NAMED 1927-10-03 12:00:00 TS 33.4000 -80.7000 40 hurdat_atl main 0 0 O_____________ hurdat_atl AL051927 33.4000 -80.7000 TS 40 0 17 348
1927274N23291 1927 54 NA NA NOT_NAMED 1927-10-03 15:00:00 TS 34.1930 -80.8418 main 0 0 P_____________ AL051927 34.1930 -80.8418 TS 37 0 16 357
1927274N23291 1927 54 NA NA NOT_NAMED 1927-10-03 18:00:00 TS 35.0000 -80.8000 35 hurdat_atl main 0 0 O_____________ hurdat_atl AL051927 35.0000 -80.8000 TS 35 0 18 5
1927274N23291 1927 54 NA NA NOT_NAMED 1927-10-03 21:00:00 TS 35.9696 -80.6537 main 0 0 P_____________ AL051927 35.9696 -80.6537 TS 32 -1 20 11
1927274N23291 1927 54 NA NA NOT_NAMED 1927-10-04 00:00:00 TS 37.0000 -80.3000 30 hurdat_atl main 0 0 O_____________ hurdat_atl AL051927 37.0000 -80.3000 TD 30 -1 22 20
1927274N23291 1927 54 NA NA NOT_NAMED 1927-10-04 03:00:00 TS 38.0112 -79.7197 main 0 0 P_____________ AL051927 38.0112 -79.7197 TD 27 -1 22 27
1927274N23291 1927 54 NA NA NOT_NAMED 1927-10-04 06:00:00 TS 39.0000 -79.0000 25 hurdat_atl main 0 O_____________ hurdat_atl AL051927 39.0000 -79.0000 TD 25 -1 23 30

About IBTrACS Database

This database is a web-friendly format of International Best Track Archive for Climate Stewardship (IBTrACS), a global best track data archive curated by NOAA dating back to 1842.

Updated: 2021-10-27